Terminal Aerodrome Forecast
Issued by NWS Charleston, WV

Current Version | Previous Version | Graphics & Text | Print | Product List | Glossary On
Versions: 1 2 3 4 5 6 7 8 9 10 11 12 13 14 15 16 17 18 19 20 21 22 23 24 25 26
000
FTUS41 KRLX 271700
TAFBKW
TAF
KBKW 271738Z 2718/2818 23012G18KT P6SM +TSRA BKN045CB
     FM272200 23013G20KT 5SM +TSRA BR BKN045CB
     FM280000 23008KT 5SM TSRA BR BKN045CB
     FM280100 24008KT P6SM VCTS BKN045CB
     FM280300 27007KT P6SM BKN040
     FM281400 29011KT P6SM BKN025=

USA.gov is the U.S. government's official web portal to all federal, state and local government web resources and services.